createdAt,value
2023-04-19T00:01:29.071Z,54.74
2023-04-19T00:04:31.862Z,55.03
2023-04-19T00:07:33.991Z,54.98
2023-04-19T00:10:37.056Z,54.87
2023-04-19T00:13:39.620Z,54.81
2023-04-19T00:16:42.235Z,54.84
2023-04-19T00:19:44.937Z,54.77
2023-04-19T00:22:47.572Z,54.84
2023-04-19T00:25:50.282Z,54.71
2023-04-19T00:28:53.409Z,54.74
2023-04-19T00:31:55.753Z,54.88
2023-04-19T00:34:59.600Z,54.83
2023-04-19T00:38:01.747Z,54.77
2023-04-19T00:41:04.306Z,54.89
2023-04-19T00:44:06.402Z,54.98
2023-04-19T00:47:09.240Z,54.97
2023-04-19T00:50:12.669Z,54.83
2023-04-19T00:53:16.675Z,55.22
2023-04-19T00:56:21.995Z,55.06
2023-04-19T00:59:25.404Z,55.03
2023-04-19T01:02:28.843Z,56.71
2023-04-19T01:05:32.218Z,56.20
2023-04-19T01:08:34.469Z,56.06
2023-04-19T01:11:37.176Z,56.53
2023-04-19T01:14:40.909Z,56.09
2023-04-19T01:17:43.937Z,56.51
2023-04-19T01:20:46.829Z,57.00
2023-04-19T01:23:49.443Z,56.86
2023-04-19T01:26:51.738Z,56.42
2023-04-19T01:29:54.169Z,56.66
2023-04-19T01:32:56.236Z,56.81
2023-04-19T01:35:58.817Z,56.72
2023-04-19T01:39:02.404Z,57.40
2023-04-19T01:42:05.135Z,57.16
2023-04-19T01:45:07.669Z,57.26
2023-04-19T01:48:10.168Z,56.74
2023-04-19T01:51:12.561Z,57.33
2023-04-19T01:54:15.836Z,58.12
2023-04-19T01:57:19.271Z,56.96
2023-04-19T02:00:23.244Z,58.92
2023-04-19T02:03:26.479Z,58.45
2023-04-19T02:06:29.622Z,58.63
2023-04-19T02:09:34.857Z,57.95
2023-04-19T02:12:38.104Z,59.14
2023-04-19T02:15:40.636Z,58.88
2023-04-19T02:18:43.664Z,59.18
2023-04-19T02:21:46.161Z,59.40
2023-04-19T02:24:51.337Z,58.41
2023-04-19T02:27:54.321Z,59.79
2023-04-19T02:30:57.135Z,59.58
2023-04-19T02:33:59.252Z,60.18
2023-04-19T02:37:03.822Z,59.96
2023-04-19T02:40:07.941Z,61.05
2023-04-19T02:43:10.577Z,60.52
2023-04-19T02:46:13.035Z,60.86
2023-04-19T02:49:15.649Z,59.88
2023-04-19T02:52:18.505Z,59.08
2023-04-19T02:55:21.584Z,59.46
2023-04-19T02:58:32.189Z,59.89
2023-04-19T03:01:39.659Z,60.59
2023-04-19T03:04:43.684Z,60.12
2023-04-19T03:07:47.218Z,60.05
2023-04-19T03:10:49.973Z,60.07
2023-04-19T03:13:52.514Z,59.68
2023-04-19T03:16:54.794Z,60.24
2023-04-19T03:19:58.237Z,59.94
2023-04-19T03:23:00.501Z,61.02
2023-04-19T03:26:05.191Z,61.03
2023-04-19T03:29:17.873Z,61.06
2023-04-19T03:32:28.637Z,61.48
2023-04-19T03:35:32.912Z,61.64
2023-04-19T03:38:44.987Z,63.05
2023-04-19T03:41:52.967Z,62.53
2023-04-19T03:45:11.145Z,63.01
2023-04-19T03:48:17.407Z,61.54
2023-04-19T03:51:20.778Z,61.76
2023-04-19T03:54:23.003Z,60.55
2023-04-19T03:57:25.920Z,61.97
2023-04-19T04:00:29.256Z,61.20
2023-04-19T04:03:35.988Z,61.19
2023-04-19T04:06:39.950Z,61.09
2023-04-19T04:09:42.917Z,61.66
2023-04-19T04:12:45.486Z,61.52
2023-04-19T04:15:55.177Z,61.75
2023-04-19T04:18:58.107Z,61.17
2023-04-19T04:22:04.648Z,60.62
2023-04-19T04:25:10.480Z,61.14
2023-04-19T04:28:14.781Z,61.59
2023-04-19T04:31:18.567Z,61.01
2023-04-19T04:34:23.037Z,60.36
2023-04-19T04:37:35.914Z,60.57
2023-04-19T04:40:39.245Z,59.77
2023-04-19T04:43:41.724Z,60.28
2023-04-19T04:46:45.436Z,60.94
2023-04-19T04:49:52.954Z,60.16
2023-04-19T04:52:55.868Z,60.89
2023-04-19T04:56:03.613Z,59.24
2023-04-19T04:59:08.158Z,60.42
2023-04-19T05:02:17.460Z,60.76
2023-04-19T05:05:21.518Z,61.51
2023-04-19T05:08:27.259Z,61.71
2023-04-19T05:11:42.607Z,60.40
2023-04-19T05:14:45.042Z,60.71
2023-04-19T05:17:48.532Z,60.76
2023-04-19T05:20:50.980Z,61.32
2023-04-19T05:23:58.767Z,61.47
2023-04-19T05:27:01.983Z,60.85
2023-04-19T05:30:07.252Z,61.84
2023-04-19T05:33:12.113Z,60.38
2023-04-19T05:36:15.209Z,60.03
2023-04-19T05:39:17.453Z,60.77
2023-04-19T05:42:20.578Z,60.99
2023-04-19T05:45:22.933Z,59.60
2023-04-19T05:48:26.155Z,60.23
2023-04-19T05:51:57.901Z,58.93
2023-04-19T05:55:08.618Z,59.53
2023-04-19T05:58:17.004Z,59.69
2023-04-19T06:01:19.891Z,58.39
2023-04-19T06:04:23.322Z,59.98
2023-04-19T06:07:31.875Z,59.36
2023-04-19T06:10:52.629Z,61.02
2023-04-19T06:13:58.120Z,60.60
2023-04-19T06:17:01.457Z,60.37
2023-04-19T06:20:07.018Z,59.34
2023-04-19T06:23:09.225Z,59.68
2023-04-19T06:26:12.114Z,58.96
2023-04-19T06:29:14.429Z,62.11
2023-04-19T06:32:17.053Z,60.99
2023-04-19T06:35:20.362Z,59.71
2023-04-19T06:38:23.966Z,57.10
2023-04-19T06:41:27.044Z,59.44
2023-04-19T06:44:30.168Z,58.57
2023-04-19T06:47:33.516Z,55.02
2023-04-19T06:50:38.603Z,58.21
2023-04-19T06:53:40.835Z,58.40
2023-04-19T06:56:48.564Z,56.21
2023-04-19T06:59:51.015Z,59.16
2023-04-19T07:02:53.928Z,54.85
2023-04-19T07:05:58.863Z,55.50
2023-04-19T07:09:01.684Z,53.26
2023-04-19T07:12:04.023Z,56.55
2023-04-19T07:15:07.171Z,56.87
2023-04-19T07:18:11.626Z,56.89
2023-04-19T07:21:15.414Z,56.63
2023-04-19T07:24:18.353Z,58.39
2023-04-19T07:27:21.506Z,55.66
2023-04-19T07:30:25.029Z,54.33
2023-04-19T07:33:31.583Z,52.52
2023-04-19T07:36:35.677Z,55.65
2023-04-19T07:39:38.846Z,55.33
2023-04-19T07:42:40.930Z,54.32
2023-04-19T07:45:43.554Z,58.44
2023-04-19T07:48:46.781Z,55.89
2023-04-19T07:51:49.840Z,51.87
2023-04-19T07:54:51.964Z,57.56
2023-04-19T07:57:54.672Z,56.10
2023-04-19T08:00:57.263Z,54.13
2023-04-19T08:04:00.297Z,54.02
2023-04-19T08:07:04.353Z,54.42
2023-04-19T08:10:08.522Z,54.09
2023-04-19T08:13:11.083Z,58.27
2023-04-19T08:16:41.864Z,55.10
2023-04-19T08:19:38.082Z,58.58
2023-04-19T08:22:41.191Z,57.72
2023-04-19T08:25:43.509Z,53.39
2023-04-19T08:28:46.604Z,51.55
2023-04-19T08:31:49.387Z,59.51
2023-04-19T08:34:52.180Z,56.76
2023-04-19T08:37:54.502Z,51.97
2023-04-19T08:40:57.336Z,53.87
2023-04-19T08:44:00.257Z,52.52
2023-04-19T08:47:03.434Z,50.20
2023-04-19T08:50:17.289Z,52.83
2023-04-19T08:53:30.760Z,49.45
2023-04-19T08:56:35.788Z,53.87
2023-04-19T08:59:41.575Z,56.64
2023-04-19T09:02:50.992Z,49.05
2023-04-19T09:05:55.436Z,49.57
2023-04-19T09:09:34.897Z,59.20
2023-04-19T09:12:42.257Z,50.40
2023-04-19T09:15:45.295Z,50.60
2023-04-19T09:19:22.373Z,55.41
2023-04-19T09:22:23.430Z,46.08
2023-04-19T09:28:32.354Z,47.13
2023-04-19T09:31:50.987Z,56.99
2023-04-19T09:34:59.113Z,57.61
2023-04-19T09:41:11.047Z,47.24
2023-04-19T09:44:44.566Z,47.30
2023-04-19T09:47:38.408Z,53.02
2023-04-19T09:51:00.696Z,52.47
2023-04-19T09:54:07.586Z,48.09
2023-04-19T09:57:10.370Z,49.30
2023-04-19T10:00:15.966Z,57.37
2023-04-19T10:03:19.410Z,50.73
2023-04-19T10:09:29.352Z,53.93
2023-04-19T10:12:58.482Z,49.92
2023-04-19T10:16:01.827Z,49.84
2023-04-19T10:19:17.352Z,53.10
2023-04-19T10:22:20.509Z,48.35
2023-04-19T10:25:38.802Z,47.64
2023-04-19T10:28:43.024Z,50.74
2023-04-19T10:31:51.460Z,50.11
2023-04-19T10:34:57.126Z,51.26
2023-04-19T10:38:08.586Z,48.65
2023-04-19T10:41:18.464Z,52.08
2023-04-19T10:44:20.943Z,47.49
2023-04-19T10:47:41.912Z,50.29
2023-04-19T10:51:00.240Z,46.61
2023-04-19T10:54:34.163Z,48.14
2023-04-19T10:58:08.062Z,52.64
2023-04-19T11:01:46.175Z,50.27
2023-04-19T11:04:50.211Z,48.62
2023-04-19T11:07:52.918Z,48.66
2023-04-19T11:10:57.342Z,47.71
2023-04-19T11:14:02.725Z,45.92
2023-04-19T11:17:16.771Z,48.54
2023-04-19T11:20:23.107Z,48.00
2023-04-19T11:23:25.590Z,43.62
2023-04-19T11:26:27.842Z,45.41
2023-04-19T11:29:30.299Z,48.26
2023-04-19T11:32:32.807Z,49.76
2023-04-19T11:35:36.830Z,48.03
2023-04-19T11:38:39.472Z,44.70
2023-04-19T11:41:42.367Z,43.08
2023-04-19T11:44:52.599Z,48.04
2023-04-19T11:47:58.036Z,49.56
2023-04-19T11:51:00.962Z,49.17
2023-04-19T11:54:13.781Z,46.59
2023-04-19T11:57:16.242Z,45.21
2023-04-19T12:00:28.764Z,45.98
2023-04-19T12:03:31.744Z,42.37
2023-04-19T12:06:35.214Z,45.05
2023-04-19T12:09:38.788Z,47.73
2023-04-19T12:12:41.644Z,44.15
2023-04-19T12:15:45.437Z,44.72
2023-04-19T12:18:50.676Z,41.09
2023-04-19T12:21:53.948Z,41.79
2023-04-19T12:24:57.933Z,45.88
2023-04-19T12:28:04.276Z,44.23
2023-04-19T12:31:06.979Z,43.61
2023-04-19T12:34:09.213Z,42.30
2023-04-19T12:37:14.284Z,45.50
2023-04-19T12:40:22.343Z,42.50
2023-04-19T12:43:30.198Z,44.62
2023-04-19T12:46:32.951Z,44.04
2023-04-19T12:49:35.847Z,43.88
2023-04-19T12:52:38.686Z,43.86
2023-04-19T12:55:41.272Z,45.34
2023-04-19T12:58:43.608Z,42.40
2023-04-19T13:01:46.386Z,42.93
2023-04-19T13:04:50.793Z,44.80
2023-04-19T13:08:02.456Z,44.03
2023-04-19T13:11:04.668Z,47.48
2023-04-19T13:14:07.247Z,45.16
2023-04-19T13:17:14.195Z,47.99
2023-04-19T13:20:26.390Z,47.85
2023-04-19T13:23:28.852Z,47.63
2023-04-19T13:26:31.656Z,45.09
2023-04-19T13:29:33.832Z,48.40
2023-04-19T13:32:37.217Z,48.77
2023-04-19T13:35:39.842Z,43.91
2023-04-19T13:38:42.347Z,45.05
2023-04-19T13:41:44.492Z,44.60
2023-04-19T13:44:50.774Z,45.53
2023-04-19T13:47:53.021Z,47.12
2023-04-19T13:50:56.621Z,46.37
2023-04-19T13:54:02.332Z,47.37
2023-04-19T13:57:04.821Z,46.61
2023-04-19T14:00:07.821Z,44.78
2023-04-19T14:03:11.384Z,46.09
2023-04-19T14:06:13.823Z,46.89
2023-04-19T14:09:16.270Z,44.86
2023-04-19T14:12:18.859Z,45.85
2023-04-19T14:15:26.277Z,46.73
2023-04-19T14:18:28.531Z,45.99
2023-04-19T14:21:31.723Z,44.79
2023-04-19T14:24:33.938Z,45.59
2023-04-19T14:27:36.590Z,45.69
2023-04-19T14:30:40.539Z,47.70
2023-04-19T14:33:43.208Z,48.01
2023-04-19T14:36:51.029Z,46.72
2023-04-19T14:39:54.679Z,47.90
2023-04-19T14:42:56.829Z,45.75
2023-04-19T14:46:00.631Z,47.80
2023-04-19T14:49:09.776Z,47.60
2023-04-19T14:52:21.820Z,46.11
2023-04-19T14:55:30.835Z,47.41
2023-04-19T14:58:36.866Z,43.92
2023-04-19T15:01:39.566Z,47.08
2023-04-19T15:04:43.155Z,48.30
2023-04-19T15:07:45.650Z,48.62
2023-04-19T15:10:49.813Z,47.70
2023-04-19T15:13:52.204Z,49.35
2023-04-19T15:16:55.883Z,48.08
2023-04-19T15:19:58.847Z,49.97
2023-04-19T15:23:07.482Z,50.39
2023-04-19T15:26:10.128Z,50.69
2023-04-19T15:29:13.966Z,51.08
2023-04-19T15:32:16.828Z,51.88
2023-04-19T15:35:19.939Z,52.63
2023-04-19T15:38:30.446Z,52.49
2023-04-19T15:41:33.719Z,52.60
2023-04-19T15:44:36.183Z,52.04
2023-04-19T15:47:39.723Z,51.10
2023-04-19T15:50:44.122Z,51.75
2023-04-19T15:53:47.314Z,51.63
2023-04-19T15:56:49.648Z,52.13
2023-04-19T15:59:54.543Z,52.66
2023-04-19T16:02:58.842Z,53.09
2023-04-19T16:06:01.697Z,51.86
2023-04-19T16:09:04.256Z,51.34
2023-04-19T16:12:07.249Z,52.22
2023-04-19T16:15:10.361Z,52.32
2023-04-19T16:18:14.795Z,51.61
2023-04-19T16:21:17.678Z,51.75
2023-04-19T16:24:21.193Z,51.15
2023-04-19T16:27:23.342Z,52.31
2023-04-19T16:30:29.222Z,51.50
2023-04-19T16:33:31.678Z,51.40
2023-04-19T16:36:34.422Z,52.17
2023-04-19T16:39:36.745Z,51.99
2023-04-19T16:42:41.949Z,50.76
2023-04-19T16:45:44.250Z,51.67
2023-04-19T16:48:47.649Z,51.73
2023-04-19T16:51:50.074Z,53.56
2023-04-19T16:54:53.270Z,52.24
2023-04-19T16:57:57.561Z,54.34
2023-04-19T17:01:02.050Z,53.05
2023-04-19T17:04:04.499Z,52.70
2023-04-19T17:07:12.113Z,53.39
2023-04-19T17:10:14.502Z,53.80
2023-04-19T17:13:20.370Z,54.24
2023-04-19T17:16:22.657Z,53.81
2023-04-19T17:19:28.175Z,54.53
2023-04-19T17:22:31.107Z,53.69
2023-04-19T17:25:33.774Z,54.42
2023-04-19T17:28:37.071Z,54.63
2023-04-19T17:31:39.897Z,54.37
2023-04-19T17:34:42.177Z,53.93
2023-04-19T17:37:44.819Z,54.56
2023-04-19T17:40:47.067Z,53.98
2023-04-19T17:43:52.464Z,54.48
2023-04-19T17:46:54.860Z,54.05
2023-04-19T17:50:09.866Z,54.19
2023-04-19T17:53:12.294Z,55.34
2023-04-19T17:56:15.481Z,54.71
2023-04-19T17:59:18.763Z,54.96
2023-04-19T18:02:22.302Z,53.72
2023-04-19T18:05:25.528Z,54.47
2023-04-19T18:08:29.131Z,54.84
2023-04-19T18:11:31.471Z,54.06
2023-04-19T18:14:34.681Z,54.70
2023-04-19T18:17:37.184Z,54.48
2023-04-19T18:20:39.790Z,53.79
2023-04-19T18:23:42.478Z,53.28
2023-04-19T18:26:45.118Z,54.76
2023-04-19T18:29:51.112Z,54.47
2023-04-19T18:32:54.883Z,53.95
2023-04-19T18:35:58.375Z,54.40
2023-04-19T18:39:00.961Z,53.99
2023-04-19T18:42:03.567Z,54.05
2023-04-19T18:45:07.592Z,55.84
2023-04-19T18:48:10.743Z,54.27
2023-04-19T18:51:13.415Z,55.07
2023-04-19T18:54:19.764Z,55.31
2023-04-19T18:57:26.720Z,55.05
2023-04-19T19:00:30.794Z,54.50
2023-04-19T19:06:38.777Z,56.46
2023-04-19T19:12:46.188Z,57.09
2023-04-19T19:15:48.939Z,56.96
2023-04-19T19:18:51.761Z,56.21
2023-04-19T19:21:55.401Z,56.86
2023-04-19T19:24:58.768Z,57.03
2023-04-19T19:31:07.125Z,57.16
2023-04-19T19:34:25.431Z,57.57
2023-04-19T19:37:31.604Z,56.44
2023-04-19T19:40:34.639Z,55.72
2023-04-19T19:43:37.289Z,56.31
2023-04-19T19:46:40.458Z,56.92
2023-04-19T19:52:49.292Z,55.07
2023-04-19T19:55:51.992Z,56.15
2023-04-19T19:58:57.723Z,55.38
2023-04-19T20:02:02.410Z,56.05
2023-04-19T20:05:06.036Z,55.15
2023-04-19T20:08:12.311Z,56.11
2023-04-19T20:11:15.529Z,56.12
2023-04-19T20:14:17.889Z,56.72
2023-04-19T20:17:20.901Z,57.59
2023-04-19T20:20:23.347Z,57.18
2023-04-19T20:23:26.635Z,57.75
2023-04-19T20:26:30.460Z,58.33
2023-04-19T20:29:33.264Z,56.93
2023-04-19T20:32:36.855Z,55.54
2023-04-19T20:35:42.303Z,55.99
2023-04-19T20:38:45.566Z,53.25
2023-04-19T20:41:48.832Z,52.40
2023-04-19T20:44:51.348Z,52.82
2023-04-19T20:47:56.021Z,53.20
2023-04-19T20:50:59.253Z,52.35
2023-04-19T20:54:01.802Z,53.82
2023-04-19T20:57:05.030Z,51.51
2023-04-19T21:00:09.505Z,47.58
2023-04-19T21:03:11.979Z,51.49
2023-04-19T21:06:14.804Z,51.50
2023-04-19T21:09:17.154Z,51.14
2023-04-19T21:12:19.787Z,50.37
2023-04-19T21:15:23.606Z,52.75
2023-04-19T21:18:28.986Z,49.26
2023-04-19T21:21:32.432Z,50.55
2023-04-19T21:24:42.019Z,46.70
2023-04-19T21:27:44.299Z,48.72
2023-04-19T21:30:47.113Z,52.39
2023-04-19T21:33:49.659Z,46.93
2023-04-19T21:36:52.116Z,50.61
2023-04-19T21:39:55.086Z,51.54
2023-04-19T21:42:57.638Z,45.29
2023-04-19T21:46:02.033Z,47.11
2023-04-19T21:49:05.288Z,50.21
2023-04-19T21:52:08.153Z,52.31
2023-04-19T21:55:10.861Z,51.84
2023-04-19T21:58:13.550Z,48.05
2023-04-19T22:01:16.676Z,48.78
2023-04-19T22:04:19.363Z,43.71
2023-04-19T22:07:24.179Z,49.38
2023-04-19T22:10:26.680Z,51.83
2023-04-19T22:13:30.668Z,49.69
2023-04-19T22:16:33.310Z,50.85
2023-04-19T22:19:35.833Z,51.65
2023-04-19T22:22:38.032Z,50.19
2023-04-19T22:25:40.978Z,52.20
2023-04-19T22:28:43.308Z,46.45
2023-04-19T22:31:45.922Z,51.41
2023-04-19T22:34:48.415Z,48.62
2023-04-19T22:37:51.311Z,49.17
2023-04-19T22:40:53.855Z,49.04
2023-04-19T22:43:56.234Z,46.42
2023-04-19T22:47:00.449Z,51.37
2023-04-19T22:50:03.382Z,47.57
2023-04-19T22:53:05.436Z,46.33
2023-04-19T22:56:07.904Z,46.75
2023-04-19T22:59:10.179Z,46.52
2023-04-19T23:02:14.021Z,49.51
2023-04-19T23:05:18.341Z,47.50
2023-04-19T23:08:21.201Z,49.25
2023-04-19T23:11:25.238Z,47.01
2023-04-19T23:14:28.644Z,48.38
2023-04-19T23:17:31.061Z,47.91
2023-04-19T23:20:33.594Z,48.38
2023-04-19T23:23:36.152Z,48.51
2023-04-19T23:26:40.001Z,49.08
2023-04-19T23:29:42.099Z,47.55
2023-04-19T23:32:45.089Z,47.84
2023-04-19T23:35:47.260Z,47.85
2023-04-19T23:38:50.022Z,48.01
2023-04-19T23:41:52.332Z,49.87
2023-04-19T23:44:55.884Z,49.16
2023-04-19T23:47:58.026Z,49.96
2023-04-19T23:51:00.590Z,49.45
2023-04-19T23:54:02.588Z,49.22
2023-04-19T23:57:04.953Z,49.63
